Terminal Aerodrome Forecast
Issued by NWS

Home | Current Version | Previous Version | Text Only | Print | Product List | Glossary On
Versions: 1 2 3 4 5 6 7 8 9 10 11 12 13 14 15 16
000
FTUS43 KDTX 242321
TAFPTK
TAF
KPTK 242321Z 2500/2524 23005KT P6SM BKN045
     FM250200 22004KT P6SM BKN200
     FM250800 22003KT 3SM BR SCT070 BKN200
     FM251200 24010G18KT P6SM OVC012
     FM251600 28015G25KT P6SM BKN018
     FM252000 29014G24KT P6SM SKC=

USA.gov is the U.S. government's official web portal to all federal, state and local government web resources and services.